sensor_id;sensor_type;location;lat;lon;timestamp;P1;durP1;ratioP1;P2;durP2;ratioP2
46078;SDS011;31820;51.880;-0.518;2022-08-18T00:01:50;9.68;;;4.10;;
46078;SDS011;31820;51.880;-0.518;2022-08-18T00:04:25;12.27;;;4.47;;
46078;SDS011;31820;51.880;-0.518;2022-08-18T00:06:51;9.65;;;4.53;;
46078;SDS011;31820;51.880;-0.518;2022-08-18T00:09:16;14.32;;;4.57;;
46078;SDS011;31820;51.880;-0.518;2022-08-18T00:11:42;12.07;;;5.50;;
46078;SDS011;31820;51.880;-0.518;2022-08-18T00:14:11;13.77;;;4.63;;
46078;SDS011;31820;51.880;-0.518;2022-08-18T00:16:39;14.27;;;4.72;;
46078;SDS011;31820;51.880;-0.518;2022-08-18T00:19:04;12.07;;;4.68;;
46078;SDS011;31820;51.880;-0.518;2022-08-18T00:21:31;14.23;;;4.80;;
46078;SDS011;31820;51.880;-0.518;2022-08-18T00:23:57;11.68;;;4.63;;
46078;SDS011;31820;51.880;-0.518;2022-08-18T00:26:22;12.05;;;4.40;;
46078;SDS011;31820;51.880;-0.518;2022-08-18T00:28:48;12.13;;;3.90;;
46078;SDS011;31820;51.880;-0.518;2022-08-18T00:31:13;11.98;;;4.68;;
46078;SDS011;31820;51.880;-0.518;2022-08-18T00:33:39;12.55;;;4.28;;
46078;SDS011;31820;51.880;-0.518;2022-08-18T00:36:04;14.40;;;4.43;;
46078;SDS011;31820;51.880;-0.518;2022-08-18T00:38:30;14.75;;;4.35;;
46078;SDS011;31820;51.880;-0.518;2022-08-18T00:40:55;9.85;;;3.92;;
46078;SDS011;31820;51.880;-0.518;2022-08-18T00:43:22;11.00;;;4.93;;
46078;SDS011;31820;51.880;-0.518;2022-08-18T00:45:53;16.05;;;4.80;;
46078;SDS011;31820;51.880;-0.518;2022-08-18T00:48:19;8.50;;;3.88;;
46078;SDS011;31820;51.880;-0.518;2022-08-18T00:55:58;8.18;;;3.75;;
46078;SDS011;31820;51.880;-0.518;2022-08-18T00:58:31;14.52;;;5.72;;
46078;SDS011;31820;51.880;-0.518;2022-08-18T01:01:01;14.95;;;5.07;;
46078;SDS011;31820;51.880;-0.518;2022-08-18T01:03:29;10.23;;;4.18;;
46078;SDS011;31820;51.880;-0.518;2022-08-18T01:06:02;10.38;;;4.45;;
46078;SDS011;31820;51.880;-0.518;2022-08-18T01:08:31;14.40;;;5.72;;
46078;SDS011;31820;51.880;-0.518;2022-08-18T01:10:57;11.40;;;4.88;;
46078;SDS011;31820;51.880;-0.518;2022-08-18T01:13:29;9.60;;;4.18;;
46078;SDS011;31820;51.880;-0.518;2022-08-18T01:15:57;13.93;;;5.30;;
46078;SDS011;31820;51.880;-0.518;2022-08-18T01:18:23;6.95;;;4.47;;
46078;SDS011;31820;51.880;-0.518;2022-08-18T01:21:19;13.98;;;6.70;;
46078;SDS011;31820;51.880;-0.518;2022-08-18T01:24:09;19.63;;;8.68;;
46078;SDS011;31820;51.880;-0.518;2022-08-18T01:26:37;23.80;;;10.45;;
46078;SDS011;31820;51.880;-0.518;2022-08-18T01:29:09;18.48;;;8.88;;
46078;SDS011;31820;51.880;-0.518;2022-08-18T01:31:37;22.63;;;11.10;;
46078;SDS011;31820;51.880;-0.518;2022-08-18T01:34:05;20.73;;;11.05;;
46078;SDS011;31820;51.880;-0.518;2022-08-18T01:36:32;22.67;;;10.70;;
46078;SDS011;31820;51.880;-0.518;2022-08-18T01:39:02;22.27;;;11.68;;
46078;SDS011;31820;51.880;-0.518;2022-08-18T01:41:29;21.60;;;11.02;;
46078;SDS011;31820;51.880;-0.518;2022-08-18T01:43:55;18.70;;;9.02;;
46078;SDS011;31820;51.880;-0.518;2022-08-18T01:46:22;17.33;;;9.93;;
46078;SDS011;31820;51.880;-0.518;2022-08-18T01:48:49;21.92;;;11.57;;
46078;SDS011;31820;51.880;-0.518;2022-08-18T01:51:15;24.20;;;12.25;;
46078;SDS011;31820;51.880;-0.518;2022-08-18T01:53:42;25.67;;;12.15;;
46078;SDS011;31820;51.880;-0.518;2022-08-18T01:56:07;26.38;;;13.27;;
46078;SDS011;31820;51.880;-0.518;2022-08-18T01:58:34;27.15;;;12.80;;
46078;SDS011;31820;51.880;-0.518;2022-08-18T02:01:00;24.23;;;13.32;;
46078;SDS011;31820;51.880;-0.518;2022-08-18T02:03:31;20.90;;;11.15;;
46078;SDS011;31820;51.880;-0.518;2022-08-18T02:06:02;19.10;;;11.57;;
46078;SDS011;31820;51.880;-0.518;2022-08-18T02:08:32;23.75;;;13.48;;
46078;SDS011;31820;51.880;-0.518;2022-08-18T02:10:57;29.05;;;12.98;;
46078;SDS011;31820;51.880;-0.518;2022-08-18T02:13:23;23.92;;;12.25;;
46078;SDS011;31820;51.880;-0.518;2022-08-18T02:15:50;18.88;;;10.20;;
46078;SDS011;31820;51.880;-0.518;2022-08-18T02:18:16;25.95;;;12.90;;
46078;SDS011;31820;51.880;-0.518;2022-08-18T02:20:43;24.15;;;14.35;;
46078;SDS011;31820;51.880;-0.518;2022-08-18T02:23:09;29.00;;;14.55;;
46078;SDS011;31820;51.880;-0.518;2022-08-18T02:25:35;29.48;;;12.55;;
46078;SDS011;31820;51.880;-0.518;2022-08-18T02:28:01;30.90;;;13.82;;
46078;SDS011;31820;51.880;-0.518;2022-08-18T02:30:27;28.48;;;14.13;;
46078;SDS011;31820;51.880;-0.518;2022-08-18T02:32:53;28.23;;;14.63;;
46078;SDS011;31820;51.880;-0.518;2022-08-18T02:37:46;31.67;;;14.43;;
46078;SDS011;31820;51.880;-0.518;2022-08-18T02:40:12;29.77;;;14.45;;
46078;SDS011;31820;51.880;-0.518;2022-08-18T02:42:39;28.48;;;14.95;;
46078;SDS011;31820;51.880;-0.518;2022-08-18T02:45:05;30.83;;;16.02;;
46078;SDS011;31820;51.880;-0.518;2022-08-18T02:47:31;26.10;;;14.82;;
46078;SDS011;31820;51.880;-0.518;2022-08-18T02:49:56;26.92;;;14.18;;
46078;SDS011;31820;51.880;-0.518;2022-08-18T02:52:22;24.85;;;15.00;;
46078;SDS011;31820;51.880;-0.518;2022-08-18T02:54:52;24.73;;;14.65;;
46078;SDS011;31820;51.880;-0.518;2022-08-18T02:57:18;27.17;;;13.88;;
46078;SDS011;31820;51.880;-0.518;2022-08-18T02:59:46;29.10;;;15.23;;
46078;SDS011;31820;51.880;-0.518;2022-08-18T03:02:12;28.27;;;15.15;;
46078;SDS011;31820;51.880;-0.518;2022-08-18T03:04:37;31.50;;;14.40;;
46078;SDS011;31820;51.880;-0.518;2022-08-18T03:07:04;25.95;;;15.52;;
46078;SDS011;31820;51.880;-0.518;2022-08-18T03:09:30;28.83;;;17.10;;
46078;SDS011;31820;51.880;-0.518;2022-08-18T03:11:56;26.65;;;16.92;;
46078;SDS011;31820;51.880;-0.518;2022-08-18T03:14:22;23.33;;;15.98;;
46078;SDS011;31820;51.880;-0.518;2022-08-18T03:16:49;28.42;;;13.48;;
46078;SDS011;31820;51.880;-0.518;2022-08-18T03:19:15;33.88;;;16.83;;
46078;SDS011;31820;51.880;-0.518;2022-08-18T03:21:42;31.50;;;16.80;;
46078;SDS011;31820;51.880;-0.518;2022-08-18T03:24:09;25.95;;;16.13;;
46078;SDS011;31820;51.880;-0.518;2022-08-18T03:26:38;27.52;;;15.40;;
46078;SDS011;31820;51.880;-0.518;2022-08-18T03:29:08;31.33;;;16.70;;
46078;SDS011;31820;51.880;-0.518;2022-08-18T03:31:34;24.45;;;15.73;;
46078;SDS011;31820;51.880;-0.518;2022-08-18T03:34:04;24.30;;;15.20;;
46078;SDS011;31820;51.880;-0.518;2022-08-18T03:36:32;28.15;;;15.57;;
46078;SDS011;31820;51.880;-0.518;2022-08-18T03:39:07;27.65;;;15.20;;
46078;SDS011;31820;51.880;-0.518;2022-08-18T03:41:35;17.92;;;10.85;;
46078;SDS011;31820;51.880;-0.518;2022-08-18T03:44:03;21.63;;;14.10;;
46078;SDS011;31820;51.880;-0.518;2022-08-18T03:46:28;21.98;;;14.35;;
46078;SDS011;31820;51.880;-0.518;2022-08-18T03:48:55;26.48;;;14.40;;
46078;SDS011;31820;51.880;-0.518;2022-08-18T03:51:23;18.17;;;11.70;;
46078;SDS011;31820;51.880;-0.518;2022-08-18T03:53:51;23.63;;;13.55;;
46078;SDS011;31820;51.880;-0.518;2022-08-18T03:56:20;26.10;;;14.60;;
46078;SDS011;31820;51.880;-0.518;2022-08-18T03:58:48;21.40;;;12.90;;
46078;SDS011;31820;51.880;-0.518;2022-08-18T04:01:19;23.80;;;12.20;;
46078;SDS011;31820;51.880;-0.518;2022-08-18T04:03:48;28.00;;;14.23;;
46078;SDS011;31820;51.880;-0.518;2022-08-18T04:06:20;26.55;;;14.63;;
46078;SDS011;31820;51.880;-0.518;2022-08-18T04:08:51;15.48;;;9.40;;
46078;SDS011;31820;51.880;-0.518;2022-08-18T04:11:20;26.92;;;12.98;;
46078;SDS011;31820;51.880;-0.518;2022-08-18T04:13:47;20.42;;;12.77;;
46078;SDS011;31820;51.880;-0.518;2022-08-18T04:16:13;21.55;;;11.75;;
46078;SDS011;31820;51.880;-0.518;2022-08-18T04:18:39;22.90;;;12.10;;
46078;SDS011;31820;51.880;-0.518;2022-08-18T04:21:06;16.75;;;9.32;;
46078;SDS011;31820;51.880;-0.518;2022-08-18T04:23:33;21.50;;;11.70;;
46078;SDS011;31820;51.880;-0.518;2022-08-18T04:26:03;14.35;;;8.52;;
46078;SDS011;31820;51.880;-0.518;2022-08-18T04:28:30;18.95;;;10.00;;
46078;SDS011;31820;51.880;-0.518;2022-08-18T04:30:56;15.00;;;7.45;;
46078;SDS011;31820;51.880;-0.518;2022-08-18T04:35:52;23.50;;;11.07;;
46078;SDS011;31820;51.880;-0.518;2022-08-18T04:38:18;18.08;;;8.73;;
46078;SDS011;31820;51.880;-0.518;2022-08-18T04:40:44;15.65;;;8.38;;
46078;SDS011;31820;51.880;-0.518;2022-08-18T04:43:11;10.15;;;6.70;;
46078;SDS011;31820;51.880;-0.518;2022-08-18T04:45:45;9.45;;;5.70;;
46078;SDS011;31820;51.880;-0.518;2022-08-18T04:48:11;19.30;;;8.88;;
46078;SDS011;31820;51.880;-0.518;2022-08-18T04:50:37;18.33;;;8.25;;
46078;SDS011;31820;51.880;-0.518;2022-08-18T04:53:04;14.95;;;7.55;;
46078;SDS011;31820;51.880;-0.518;2022-08-18T04:55:49;26.75;;;9.85;;
46078;SDS011;31820;51.880;-0.518;2022-08-18T04:58:17;16.67;;;8.23;;
46078;SDS011;31820;51.880;-0.518;2022-08-18T05:00:43;16.38;;;7.65;;
46078;SDS011;31820;51.880;-0.518;2022-08-18T05:03:10;15.35;;;7.53;;
46078;SDS011;31820;51.880;-0.518;2022-08-18T05:05:35;20.52;;;9.13;;
46078;SDS011;31820;51.880;-0.518;2022-08-18T05:08:01;14.95;;;6.78;;
46078;SDS011;31820;51.880;-0.518;2022-08-18T05:10:27;20.33;;;7.88;;
46078;SDS011;31820;51.880;-0.518;2022-08-18T05:12:52;18.13;;;9.00;;
46078;SDS011;31820;51.880;-0.518;2022-08-18T05:15:18;13.18;;;6.75;;
46078;SDS011;31820;51.880;-0.518;2022-08-18T05:17:44;19.17;;;8.25;;
46078;SDS011;31820;51.880;-0.518;2022-08-18T05:20:10;21.30;;;8.85;;
46078;SDS011;31820;51.880;-0.518;2022-08-18T05:22:37;17.60;;;6.80;;
46078;SDS011;31820;51.880;-0.518;2022-08-18T05:25:05;19.45;;;7.78;;
46078;SDS011;31820;51.880;-0.518;2022-08-18T05:27:33;15.95;;;7.15;;
46078;SDS011;31820;51.880;-0.518;2022-08-18T05:30:00;12.25;;;5.55;;
46078;SDS011;31820;51.880;-0.518;2022-08-18T05:32:27;16.20;;;6.60;;
46078;SDS011;31820;51.880;-0.518;2022-08-18T05:34:55;13.68;;;6.78;;
46078;SDS011;31820;51.880;-0.518;2022-08-18T05:37:30;18.27;;;8.30;;
46078;SDS011;31820;51.880;-0.518;2022-08-18T05:40:05;16.02;;;7.57;;
46078;SDS011;31820;51.880;-0.518;2022-08-18T05:42:36;18.45;;;7.72;;
46078;SDS011;31820;51.880;-0.518;2022-08-18T05:45:07;18.85;;;9.18;;
46078;SDS011;31820;51.880;-0.518;2022-08-18T05:47:39;22.63;;;9.60;;
46078;SDS011;31820;51.880;-0.518;2022-08-18T05:50:06;16.05;;;8.00;;
46078;SDS011;31820;51.880;-0.518;2022-08-18T05:56:00;14.43;;;6.22;;
46078;SDS011;31820;51.880;-0.518;2022-08-18T05:58:47;17.30;;;7.55;;
46078;SDS011;31820;51.880;-0.518;2022-08-18T06:01:20;17.73;;;6.65;;
46078;SDS011;31820;51.880;-0.518;2022-08-18T06:03:55;12.65;;;6.22;;
46078;SDS011;31820;51.880;-0.518;2022-08-18T06:06:29;16.17;;;7.50;;
46078;SDS011;31820;51.880;-0.518;2022-08-18T06:11:36;8.07;;;3.28;;
46078;SDS011;31820;51.880;-0.518;2022-08-18T06:14:01;6.65;;;3.38;;
46078;SDS011;31820;51.880;-0.518;2022-08-18T06:27:17;12.73;;;6.18;;
46078;SDS011;31820;51.880;-0.518;2022-08-18T06:30:01;8.57;;;3.60;;
46078;SDS011;31820;51.880;-0.518;2022-08-18T06:37:41;13.10;;;6.55;;
46078;SDS011;31820;51.880;-0.518;2022-08-18T06:40:28;9.10;;;5.30;;
46078;SDS011;31820;51.880;-0.518;2022-08-18T06:42:54;12.80;;;6.68;;
46078;SDS011;31820;51.880;-0.518;2022-08-18T06:45:21;12.90;;;6.38;;
46078;SDS011;31820;51.880;-0.518;2022-08-18T06:47:56;8.10;;;3.60;;
46078;SDS011;31820;51.880;-0.518;2022-08-18T06:53:00;9.40;;;5.55;;
46078;SDS011;31820;51.880;-0.518;2022-08-18T06:55:41;8.00;;;3.05;;
46078;SDS011;31820;51.880;-0.518;2022-08-18T07:03:15;8.60;;;3.60;;
46078;SDS011;31820;51.880;-0.518;2022-08-18T07:11:20;11.60;;;5.43;;
46078;SDS011;31820;51.880;-0.518;2022-08-18T07:13:56;8.27;;;3.10;;
46078;SDS011;31820;51.880;-0.518;2022-08-18T07:16:42;11.43;;;4.38;;
46078;SDS011;31820;51.880;-0.518;2022-08-18T07:19:09;15.40;;;6.25;;
46078;SDS011;31820;51.880;-0.518;2022-08-18T07:21:36;10.82;;;5.47;;
46078;SDS011;31820;51.880;-0.518;2022-08-18T07:29:29;11.48;;;5.75;;
46078;SDS011;31820;51.880;-0.518;2022-08-18T07:31:58;8.27;;;4.07;;
46078;SDS011;31820;51.880;-0.518;2022-08-18T07:34:31;7.50;;;3.90;;
46078;SDS011;31820;51.880;-0.518;2022-08-18T07:37:03;7.47;;;2.88;;
46078;SDS011;31820;51.880;-0.518;2022-08-18T07:39:37;9.73;;;5.07;;
46078;SDS011;31820;51.880;-0.518;2022-08-18T07:42:08;11.50;;;5.38;;
46078;SDS011;31820;51.880;-0.518;2022-08-18T07:44:57;4.63;;;3.05;;
46078;SDS011;31820;51.880;-0.518;2022-08-18T07:47:34;9.13;;;4.72;;
46078;SDS011;31820;51.880;-0.518;2022-08-18T07:50:22;7.35;;;4.40;;
46078;SDS011;31820;51.880;-0.518;2022-08-18T07:55:30;5.70;;;2.88;;
46078;SDS011;31820;51.880;-0.518;2022-08-18T08:01:34;7.90;;;3.92;;
46078;SDS011;31820;51.880;-0.518;2022-08-18T08:04:15;7.72;;;2.58;;
46078;SDS011;31820;51.880;-0.518;2022-08-18T08:06:47;6.97;;;2.88;;
46078;SDS011;31820;51.880;-0.518;2022-08-18T08:12:23;4.45;;;2.58;;
46078;SDS011;31820;51.880;-0.518;2022-08-18T08:21:16;7.68;;;5.18;;
46078;SDS011;31820;51.880;-0.518;2022-08-18T08:23:32;9.02;;;5.95;;
46078;SDS011;31820;51.880;-0.518;2022-08-18T08:31:45;9.50;;;5.65;;
46078;SDS011;31820;51.880;-0.518;2022-08-18T08:34:24;11.48;;;6.95;;
46078;SDS011;31820;51.880;-0.518;2022-08-18T08:37:02;9.35;;;6.40;;
46078;SDS011;31820;51.880;-0.518;2022-08-18T08:39:38;7.32;;;5.03;;
46078;SDS011;31820;51.880;-0.518;2022-08-18T08:44:55;8.38;;;4.63;;
46078;SDS011;31820;51.880;-0.518;2022-08-18T08:47:33;10.00;;;6.50;;
46078;SDS011;31820;51.880;-0.518;2022-08-18T08:50:08;7.88;;;5.00;;
46078;SDS011;31820;51.880;-0.518;2022-08-18T09:00:42;7.15;;;4.00;;
46078;SDS011;31820;51.880;-0.518;2022-08-18T09:05:41;13.02;;;8.18;;
46078;SDS011;31820;51.880;-0.518;2022-08-18T09:20:19;4.60;;;2.67;;
46078;SDS011;31820;51.880;-0.518;2022-08-18T09:25:45;5.35;;;3.70;;
46078;SDS011;31820;51.880;-0.518;2022-08-18T09:28:22;4.38;;;2.08;;
46078;SDS011;31820;51.880;-0.518;2022-08-18T09:38:31;9.55;;;3.88;;
46078;SDS011;31820;51.880;-0.518;2022-08-18T09:41:20;10.52;;;4.22;;
46078;SDS011;31820;51.880;-0.518;2022-08-18T09:44:07;7.65;;;3.20;;
46078;SDS011;31820;51.880;-0.518;2022-08-18T09:51:47;7.03;;;3.40;;
46078;SDS011;31820;51.880;-0.518;2022-08-18T10:01:58;5.53;;;3.25;;
46078;SDS011;31820;51.880;-0.518;2022-08-18T10:04:32;7.90;;;3.42;;
46078;SDS011;31820;51.880;-0.518;2022-08-18T10:15:29;7.15;;;3.22;;
46078;SDS011;31820;51.880;-0.518;2022-08-18T10:21:21;6.75;;;3.90;;
46078;SDS011;31820;51.880;-0.518;2022-08-18T10:23:57;6.22;;;3.88;;
46078;SDS011;31820;51.880;-0.518;2022-08-18T10:28:55;6.82;;;3.60;;
46078;SDS011;31820;51.880;-0.518;2022-08-18T10:37:17;8.18;;;4.40;;
46078;SDS011;31820;51.880;-0.518;2022-08-18T10:39:45;6.30;;;3.58;;
46078;SDS011;31820;51.880;-0.518;2022-08-18T10:45:11;9.57;;;5.23;;
46078;SDS011;31820;51.880;-0.518;2022-08-18T10:47:40;8.15;;;3.88;;
46078;SDS011;31820;51.880;-0.518;2022-08-18T10:50:20;7.63;;;4.13;;
46078;SDS011;31820;51.880;-0.518;2022-08-18T10:55:35;7.97;;;3.55;;
46078;SDS011;31820;51.880;-0.518;2022-08-18T10:58:23;7.60;;;4.28;;
46078;SDS011;31820;51.880;-0.518;2022-08-18T11:07:11;9.07;;;4.00;;
46078;SDS011;31820;51.880;-0.518;2022-08-18T11:09:40;6.68;;;3.60;;
46078;SDS011;31820;51.880;-0.518;2022-08-18T11:12:07;10.73;;;4.47;;
46078;SDS011;31820;51.880;-0.518;2022-08-18T11:19:40;6.30;;;3.75;;
46078;SDS011;31820;51.880;-0.518;2022-08-18T11:22:21;8.43;;;3.70;;
46078;SDS011;31820;51.880;-0.518;2022-08-18T11:24:51;8.27;;;4.80;;
46078;SDS011;31820;51.880;-0.518;2022-08-18T11:27:21;9.68;;;4.20;;
46078;SDS011;31820;51.880;-0.518;2022-08-18T11:29:48;7.88;;;4.07;;
46078;SDS011;31820;51.880;-0.518;2022-08-18T11:37:42;7.07;;;5.22;;
46078;SDS011;31820;51.880;-0.518;2022-08-18T11:41:12;6.88;;;4.10;;
46078;SDS011;31820;51.880;-0.518;2022-08-18T11:43:33;8.55;;;4.35;;
46078;SDS011;31820;51.880;-0.518;2022-08-18T11:46:10;13.38;;;4.57;;
46078;SDS011;31820;51.880;-0.518;2022-08-18T11:48:45;6.25;;;3.95;;
46078;SDS011;31820;51.880;-0.518;2022-08-18T11:58:45;7.32;;;3.78;;
46078;SDS011;31820;51.880;-0.518;2022-08-18T12:04:08;7.25;;;5.47;;
46078;SDS011;31820;51.880;-0.518;2022-08-18T12:06:40;8.13;;;4.13;;
46078;SDS011;31820;51.880;-0.518;2022-08-18T12:09:16;5.95;;;3.50;;
46078;SDS011;31820;51.880;-0.518;2022-08-18T12:11:52;7.95;;;3.53;;
46078;SDS011;31820;51.880;-0.518;2022-08-18T12:14:25;6.20;;;3.97;;
46078;SDS011;31820;51.880;-0.518;2022-08-18T12:16:52;8.52;;;4.72;;
46078;SDS011;31820;51.880;-0.518;2022-08-18T12:19:18;7.32;;;5.05;;
46078;SDS011;31820;51.880;-0.518;2022-08-18T12:21:45;6.07;;;3.97;;
46078;SDS011;31820;51.880;-0.518;2022-08-18T12:24:27;6.55;;;4.20;;
46078;SDS011;31820;51.880;-0.518;2022-08-18T12:26:54;6.13;;;3.97;;
46078;SDS011;31820;51.880;-0.518;2022-08-18T12:29:20;6.25;;;4.72;;
46078;SDS011;31820;51.880;-0.518;2022-08-18T12:31:47;4.85;;;3.67;;
46078;SDS011;31820;51.880;-0.518;2022-08-18T12:34:20;6.97;;;4.60;;
46078;SDS011;31820;51.880;-0.518;2022-08-18T12:36:49;5.90;;;4.47;;
46078;SDS011;31820;51.880;-0.518;2022-08-18T12:39:16;5.63;;;4.20;;
46078;SDS011;31820;51.880;-0.518;2022-08-18T12:41:42;5.50;;;3.65;;
46078;SDS011;31820;51.880;-0.518;2022-08-18T12:44:08;5.95;;;4.35;;
46078;SDS011;31820;51.880;-0.518;2022-08-18T12:46:33;9.15;;;4.95;;
46078;SDS011;31820;51.880;-0.518;2022-08-18T12:48:59;7.03;;;4.53;;
46078;SDS011;31820;51.880;-0.518;2022-08-18T12:51:26;7.75;;;4.45;;
46078;SDS011;31820;51.880;-0.518;2022-08-18T12:53:52;6.30;;;3.75;;
46078;SDS011;31820;51.880;-0.518;2022-08-18T12:58:51;9.68;;;4.25;;
46078;SDS011;31820;51.880;-0.518;2022-08-18T13:01:18;8.23;;;4.20;;
46078;SDS011;31820;51.880;-0.518;2022-08-18T13:03:45;8.65;;;4.20;;
46078;SDS011;31820;51.880;-0.518;2022-08-18T13:06:11;6.30;;;3.63;;
46078;SDS011;31820;51.880;-0.518;2022-08-18T13:08:38;8.70;;;5.55;;
46078;SDS011;31820;51.880;-0.518;2022-08-18T13:11:04;6.35;;;4.28;;
46078;SDS011;31820;51.880;-0.518;2022-08-18T13:13:34;6.70;;;4.05;;
46078;SDS011;31820;51.880;-0.518;2022-08-18T13:16:01;6.22;;;3.60;;
46078;SDS011;31820;51.880;-0.518;2022-08-18T13:18:27;6.95;;;4.20;;
46078;SDS011;31820;51.880;-0.518;2022-08-18T13:20:53;5.30;;;4.10;;
46078;SDS011;31820;51.880;-0.518;2022-08-18T13:23:18;6.72;;;5.32;;
46078;SDS011;31820;51.880;-0.518;2022-08-18T13:25:44;8.35;;;4.47;;
46078;SDS011;31820;51.880;-0.518;2022-08-18T13:28:09;9.32;;;4.18;;
46078;SDS011;31820;51.880;-0.518;2022-08-18T13:30:35;6.57;;;4.05;;
46078;SDS011;31820;51.880;-0.518;2022-08-18T13:33:00;5.43;;;3.45;;
46078;SDS011;31820;51.880;-0.518;2022-08-18T13:35:27;5.43;;;3.80;;
46078;SDS011;31820;51.880;-0.518;2022-08-18T13:37:53;7.65;;;3.85;;
46078;SDS011;31820;51.880;-0.518;2022-08-18T13:40:20;5.15;;;3.67;;
46078;SDS011;31820;51.880;-0.518;2022-08-18T13:42:47;5.70;;;3.78;;
46078;SDS011;31820;51.880;-0.518;2022-08-18T13:45:14;5.05;;;3.70;;
46078;SDS011;31820;51.880;-0.518;2022-08-18T13:47:45;4.40;;;3.72;;
46078;SDS011;31820;51.880;-0.518;2022-08-18T13:50:12;6.50;;;4.00;;
46078;SDS011;31820;51.880;-0.518;2022-08-18T13:52:38;6.97;;;3.60;;
46078;SDS011;31820;51.880;-0.518;2022-08-18T13:55:06;5.70;;;3.10;;
46078;SDS011;31820;51.880;-0.518;2022-08-18T13:57:35;4.70;;;3.50;;
46078;SDS011;31820;51.880;-0.518;2022-08-18T14:00:03;4.30;;;3.40;;
46078;SDS011;31820;51.880;-0.518;2022-08-18T14:02:31;5.35;;;3.28;;
46078;SDS011;31820;51.880;-0.518;2022-08-18T14:04:56;4.70;;;3.38;;
46078;SDS011;31820;51.880;-0.518;2022-08-18T14:07:22;5.88;;;3.20;;
46078;SDS011;31820;51.880;-0.518;2022-08-18T14:09:48;4.50;;;2.85;;
46078;SDS011;31820;51.880;-0.518;2022-08-18T14:12:16;3.95;;;3.20;;
46078;SDS011;31820;51.880;-0.518;2022-08-18T14:14:44;4.57;;;3.08;;
46078;SDS011;31820;51.880;-0.518;2022-08-18T14:17:10;3.58;;;2.80;;
46078;SDS011;31820;51.880;-0.518;2022-08-18T14:19:35;4.72;;;3.78;;
46078;SDS011;31820;51.880;-0.518;2022-08-18T14:22:19;6.30;;;3.42;;
46078;SDS011;31820;51.880;-0.518;2022-08-18T14:25:03;4.00;;;3.35;;
46078;SDS011;31820;51.880;-0.518;2022-08-18T14:27:47;4.85;;;3.33;;
46078;SDS011;31820;51.880;-0.518;2022-08-18T14:30:12;3.63;;;2.85;;
46078;SDS011;31820;51.880;-0.518;2022-08-18T14:32:39;3.93;;;3.00;;
46078;SDS011;31820;51.880;-0.518;2022-08-18T14:35:07;4.05;;;2.90;;
46078;SDS011;31820;51.880;-0.518;2022-08-18T14:37:34;3.60;;;2.85;;
46078;SDS011;31820;51.880;-0.518;2022-08-18T14:40:00;5.32;;;2.70;;
46078;SDS011;31820;51.880;-0.518;2022-08-18T14:42:26;2.90;;;2.20;;
46078;SDS011;31820;51.880;-0.518;2022-08-18T14:44:52;4.43;;;2.72;;
46078;SDS011;31820;51.880;-0.518;2022-08-18T14:47:17;3.45;;;2.80;;
46078;SDS011;31820;51.880;-0.518;2022-08-18T14:49:43;3.58;;;2.53;;
46078;SDS011;31820;51.880;-0.518;2022-08-18T14:52:10;5.80;;;2.58;;
46078;SDS011;31820;51.880;-0.518;2022-08-18T14:54:37;6.23;;;2.70;;
46078;SDS011;31820;51.880;-0.518;2022-08-18T14:57:03;4.68;;;2.75;;
46078;SDS011;31820;51.880;-0.518;2022-08-18T14:59:35;4.22;;;2.35;;
46078;SDS011;31820;51.880;-0.518;2022-08-18T15:02:01;3.23;;;2.27;;
46078;SDS011;31820;51.880;-0.518;2022-08-18T15:04:27;4.00;;;2.15;;
46078;SDS011;31820;51.880;-0.518;2022-08-18T15:06:53;2.40;;;2.00;;
46078;SDS011;31820;51.880;-0.518;2022-08-18T15:09:18;3.72;;;2.22;;
46078;SDS011;31820;51.880;-0.518;2022-08-18T15:11:44;2.97;;;2.08;;
46078;SDS011;31820;51.880;-0.518;2022-08-18T15:14:09;3.95;;;1.95;;
46078;SDS011;31820;51.880;-0.518;2022-08-18T15:16:35;3.17;;;1.73;;
46078;SDS011;31820;51.880;-0.518;2022-08-18T15:19:01;4.68;;;1.85;;
46078;SDS011;31820;51.880;-0.518;2022-08-18T15:21:28;4.22;;;2.08;;
46078;SDS011;31820;51.880;-0.518;2022-08-18T15:24:13;4.68;;;2.03;;
46078;SDS011;31820;51.880;-0.518;2022-08-18T15:26:58;2.90;;;1.73;;
46078;SDS011;31820;51.880;-0.518;2022-08-18T15:29:25;2.47;;;1.98;;
46078;SDS011;31820;51.880;-0.518;2022-08-18T15:34:17;2.67;;;1.77;;
46078;SDS011;31820;51.880;-0.518;2022-08-18T15:36:42;2.65;;;1.92;;
46078;SDS011;31820;51.880;-0.518;2022-08-18T15:39:08;2.97;;;1.95;;
46078;SDS011;31820;51.880;-0.518;2022-08-18T15:44:02;3.20;;;1.88;;
46078;SDS011;31820;51.880;-0.518;2022-08-18T15:46:33;2.85;;;1.80;;
46078;SDS011;31820;51.880;-0.518;2022-08-18T15:49:00;3.90;;;1.77;;
46078;SDS011;31820;51.880;-0.518;2022-08-18T15:51:30;2.53;;;1.70;;
46078;SDS011;31820;51.880;-0.518;2022-08-18T15:53:56;2.70;;;1.75;;
46078;SDS011;31820;51.880;-0.518;2022-08-18T15:56:23;3.00;;;1.63;;
46078;SDS011;31820;51.880;-0.518;2022-08-18T15:58:52;3.08;;;1.70;;
46078;SDS011;31820;51.880;-0.518;2022-08-18T16:01:18;3.75;;;1.70;;
46078;SDS011;31820;51.880;-0.518;2022-08-18T16:03:45;2.63;;;1.75;;
46078;SDS011;31820;51.880;-0.518;2022-08-18T16:06:12;3.78;;;1.80;;
46078;SDS011;31820;51.880;-0.518;2022-08-18T16:08:41;2.70;;;1.63;;
46078;SDS011;31820;51.880;-0.518;2022-08-18T16:11:07;3.13;;;1.85;;
46078;SDS011;31820;51.880;-0.518;2022-08-18T16:13:34;2.60;;;1.77;;
46078;SDS011;31820;51.880;-0.518;2022-08-18T16:16:02;3.08;;;1.90;;
46078;SDS011;31820;51.880;-0.518;2022-08-18T16:18:33;3.47;;;1.92;;
46078;SDS011;31820;51.880;-0.518;2022-08-18T16:21:03;3.65;;;1.98;;
46078;SDS011;31820;51.880;-0.518;2022-08-18T16:23:38;2.70;;;2.13;;
46078;SDS011;31820;51.880;-0.518;2022-08-18T16:26:09;3.17;;;1.92;;
46078;SDS011;31820;51.880;-0.518;2022-08-18T16:28:40;3.70;;;2.15;;
46078;SDS011;31820;51.880;-0.518;2022-08-18T16:31:07;2.83;;;1.90;;
46078;SDS011;31820;51.880;-0.518;2022-08-18T16:33:34;1.75;;;1.40;;
46078;SDS011;31820;51.880;-0.518;2022-08-18T16:36:03;3.58;;;1.83;;
46078;SDS011;31820;51.880;-0.518;2022-08-18T16:38:30;3.67;;;1.63;;
46078;SDS011;31820;51.880;-0.518;2022-08-18T16:40:56;3.55;;;1.77;;
46078;SDS011;31820;51.880;-0.518;2022-08-18T16:43:28;5.30;;;2.00;;
46078;SDS011;31820;51.880;-0.518;2022-08-18T16:45:54;3.25;;;1.50;;
46078;SDS011;31820;51.880;-0.518;2022-08-18T16:48:19;1.98;;;1.40;;
46078;SDS011;31820;51.880;-0.518;2022-08-18T16:50:46;3.47;;;1.95;;
46078;SDS011;31820;51.880;-0.518;2022-08-18T16:53:11;2.60;;;1.60;;
46078;SDS011;31820;51.880;-0.518;2022-08-18T16:55:37;2.60;;;1.45;;
46078;SDS011;31820;51.880;-0.518;2022-08-18T16:58:03;2.42;;;1.58;;
46078;SDS011;31820;51.880;-0.518;2022-08-18T17:00:48;3.10;;;1.42;;
46078;SDS011;31820;51.880;-0.518;2022-08-18T17:03:32;6.25;;;2.00;;
46078;SDS011;31820;51.880;-0.518;2022-08-18T17:06:16;2.78;;;1.42;;
46078;SDS011;31820;51.880;-0.518;2022-08-18T17:08:43;1.90;;;1.40;;
46078;SDS011;31820;51.880;-0.518;2022-08-18T17:11:11;3.83;;;1.60;;
46078;SDS011;31820;51.880;-0.518;2022-08-18T17:13:38;2.10;;;1.60;;
46078;SDS011;31820;51.880;-0.518;2022-08-18T17:16:05;3.33;;;1.50;;
46078;SDS011;31820;51.880;-0.518;2022-08-18T17:18:31;2.78;;;1.63;;
46078;SDS011;31820;51.880;-0.518;2022-08-18T17:21:01;2.92;;;1.30;;
46078;SDS011;31820;51.880;-0.518;2022-08-18T17:23:29;3.58;;;1.65;;
46078;SDS011;31820;51.880;-0.518;2022-08-18T17:25:55;3.50;;;1.50;;
46078;SDS011;31820;51.880;-0.518;2022-08-18T17:28:21;2.20;;;1.25;;
46078;SDS011;31820;51.880;-0.518;2022-08-18T17:30:53;4.47;;;1.60;;
46078;SDS011;31820;51.880;-0.518;2022-08-18T17:33:20;3.15;;;1.77;;
46078;SDS011;31820;51.880;-0.518;2022-08-18T17:35:50;2.35;;;1.67;;
46078;SDS011;31820;51.880;-0.518;2022-08-18T17:38:25;3.15;;;1.40;;
46078;SDS011;31820;51.880;-0.518;2022-08-18T17:41:16;3.95;;;1.73;;